createdAt,value
2019-01-12T00:02:28.968Z,45.95
2019-01-12T00:04:55.101Z,40.85
2019-01-12T00:08:24.301Z,46.18
2019-01-12T00:10:51.472Z,39.85
2019-01-12T00:13:17.646Z,41.58
2019-01-12T00:16:22.427Z,38.85
2019-01-12T00:19:25.205Z,43.78
2019-01-12T00:21:51.635Z,40.33
2019-01-12T00:24:20.895Z,44.95
2019-01-12T00:27:16.762Z,46.65
2019-01-12T00:29:44.522Z,46.58
2019-01-12T00:32:12.275Z,48.78
2019-01-12T00:35:42.200Z,48.33
2019-01-12T00:38:16.829Z,44.60
2019-01-12T00:40:43.160Z,44.18
2019-01-12T00:43:38.442Z,49.80
2019-01-12T00:46:11.043Z,45.17
2019-01-12T00:48:38.133Z,47.78
2019-01-12T00:51:14.305Z,52.35
2019-01-12T00:53:40.837Z,46.20
2019-01-12T00:56:07.020Z,47.53
2019-01-12T00:58:43.483Z,48.33
2019-01-12T01:01:09.840Z,49.25
2019-01-12T01:03:38.469Z,48.63
2019-01-12T01:06:33.491Z,44.40
2019-01-12T01:09:05.939Z,46.53
2019-01-12T01:11:32.106Z,48.52
2019-01-12T01:13:58.233Z,42.43
2019-01-12T01:16:24.257Z,45.88
2019-01-12T01:19:15.324Z,51.73
2019-01-12T01:21:41.473Z,46.10
2019-01-12T01:24:07.698Z,50.28
2019-01-12T01:26:40.896Z,46.80
2019-01-12T01:29:08.327Z,49.58
2019-01-12T01:31:34.474Z,49.98
2019-01-12T01:34:03.025Z,45.58
2019-01-12T01:36:29.244Z,43.80
2019-01-12T01:39:20.887Z,45.80
2019-01-12T01:41:46.962Z,41.73
2019-01-12T01:44:14.507Z,42.93
2019-01-12T01:46:53.140Z,44.77
2019-01-12T01:49:19.301Z,46.40
2019-01-12T01:51:55.714Z,43.75
2019-01-12T01:54:21.845Z,44.30
2019-01-12T01:56:50.093Z,49.30
2019-01-12T01:59:24.131Z,47.13
2019-01-12T02:01:50.405Z,50.67
2019-01-12T02:04:34.891Z,44.03
2019-01-12T02:07:03.132Z,42.88
2019-01-12T02:09:29.252Z,39.75
2019-01-12T02:12:07.398Z,43.50
2019-01-12T02:14:33.525Z,44.38
2019-01-12T02:17:15.035Z,39.73
2019-01-12T02:19:44.485Z,37.15
2019-01-12T02:22:10.694Z,41.53
2019-01-12T02:24:49.075Z,44.60
2019-01-12T02:27:17.117Z,40.83
2019-01-12T02:29:45.547Z,36.85
2019-01-12T02:32:33.613Z,38.10
2019-01-12T02:34:59.702Z,44.13
2019-01-12T02:37:25.732Z,42.58
2019-01-12T02:40:04.571Z,39.48
2019-01-12T02:42:31.779Z,43.05
2019-01-12T02:44:58.923Z,39.27
2019-01-12T02:47:26.174Z,40.78
2019-01-12T02:49:54.374Z,39.90
2019-01-12T02:52:23.445Z,42.78
2019-01-12T02:54:49.525Z,41.50
2019-01-12T02:57:27.852Z,42.05
2019-01-12T02:59:53.937Z,39.27
2019-01-12T03:02:20.068Z,41.68
2019-01-12T03:05:05.357Z,37.95
2019-01-12T03:07:31.594Z,36.85
2019-01-12T03:09:57.782Z,41.00
2019-01-12T03:12:29.137Z,39.85
2019-01-12T03:14:55.291Z,39.08
2019-01-12T03:17:39.780Z,38.65
2019-01-12T03:20:16.087Z,40.00
2019-01-12T03:22:42.260Z,43.02
2019-01-12T03:25:24.683Z,45.65
2019-01-12T03:27:51.022Z,36.63
2019-01-12T03:30:18.778Z,40.58
2019-01-12T03:33:16.819Z,40.75
2019-01-12T03:36:28.765Z,43.85
2019-01-12T03:38:54.884Z,39.13
2019-01-12T03:41:21.047Z,36.10
2019-01-12T03:43:56.344Z,39.58
2019-01-12T03:46:22.509Z,42.08
2019-01-12T03:48:48.537Z,38.45
2019-01-12T03:51:33.418Z,36.43
2019-01-12T03:54:00.875Z,42.65
2019-01-12T03:56:29.385Z,40.15
2019-01-12T03:58:57.486Z,38.67
2019-01-12T04:01:23.525Z,42.35
2019-01-12T04:03:59.431Z,42.23
2019-01-12T04:06:26.619Z,44.55
2019-01-12T04:08:52.783Z,40.60
2019-01-12T04:12:21.165Z,41.70
2019-01-12T04:14:47.267Z,39.33
2019-01-12T04:17:13.364Z,40.25
2019-01-12T04:19:45.552Z,43.70
2019-01-12T04:22:11.715Z,40.73
2019-01-12T04:24:37.796Z,38.75
2019-01-12T04:27:04.323Z,38.08
2019-01-12T04:29:30.558Z,40.12
2019-01-12T04:32:26.733Z,38.20
2019-01-12T04:34:52.806Z,39.13
2019-01-12T04:37:18.915Z,39.35
2019-01-12T04:39:52.069Z,38.00
2019-01-12T04:42:18.212Z,37.20
2019-01-12T04:45:19.200Z,36.87
2019-01-12T04:47:57.383Z,35.43
2019-01-12T04:50:23.491Z,36.28
2019-01-12T04:52:51.652Z,39.20
2019-01-12T04:55:17.731Z,33.03
2019-01-12T04:57:43.900Z,38.77
2019-01-12T05:00:38.841Z,31.73
2019-01-12T05:03:05.177Z,37.28
2019-01-12T05:05:48.626Z,34.77
2019-01-12T05:08:45.844Z,35.10
2019-01-12T05:11:12.382Z,41.40
2019-01-12T05:13:38.470Z,37.30
2019-01-12T05:16:12.617Z,36.35
2019-01-12T05:18:38.735Z,34.88
2019-01-12T05:21:04.799Z,37.28
2019-01-12T05:23:36.860Z,38.53
2019-01-12T05:26:03.366Z,40.23
2019-01-12T05:28:29.438Z,31.07
2019-01-12T05:31:08.605Z,37.80
2019-01-12T05:33:35.674Z,33.00
2019-01-12T05:36:01.722Z,32.50
2019-01-12T05:38:55.455Z,34.27
2019-01-12T05:41:21.501Z,28.70
2019-01-12T05:43:47.533Z,31.00
2019-01-12T05:46:51.512Z,29.40
2019-01-12T05:49:24.614Z,33.70
2019-01-12T05:51:52.403Z,26.77
2019-01-12T05:54:20.893Z,28.97
2019-01-12T05:57:11.584Z,34.97
2019-01-12T05:59:37.611Z,32.73
2019-01-12T06:02:03.623Z,29.57
2019-01-12T06:04:38.875Z,24.27
2019-01-12T06:07:05.685Z,30.97
2019-01-12T06:09:31.701Z,31.83
2019-01-12T06:12:42.067Z,29.40
2019-01-12T06:15:20.006Z,28.80
2019-01-12T06:18:26.641Z,31.83
2019-01-12T06:20:55.518Z,32.60
2019-01-12T06:23:24.641Z,29.30
2019-01-12T06:26:03.581Z,32.70
2019-01-12T06:28:28.145Z,26.50
2019-01-12T06:30:54.309Z,27.93
2019-01-12T06:33:20.319Z,27.50
2019-01-12T06:36:13.439Z,28.10
2019-01-12T06:38:40.531Z,28.53
2019-01-12T06:41:06.656Z,26.47
2019-01-12T06:43:39.297Z,26.83
2019-01-12T06:46:12.528Z,29.93
2019-01-12T06:48:38.609Z,27.77
2019-01-12T06:51:08.005Z,30.53
2019-01-12T06:54:06.088Z,25.80
2019-01-12T06:56:34.341Z,27.00
2019-01-12T06:59:00.880Z,25.03
2019-01-12T07:01:27.008Z,23.63
2019-01-12T07:03:56.175Z,25.90
2019-01-12T07:06:22.247Z,26.23
2019-01-12T07:08:49.502Z,25.70
2019-01-12T07:11:54.525Z,20.73
2019-01-12T07:14:27.038Z,22.23
2019-01-12T07:16:54.375Z,23.17
2019-01-12T07:19:20.406Z,26.37
2019-01-12T07:21:46.837Z,21.13
2019-01-12T07:24:23.123Z,21.50
2019-01-12T07:26:50.556Z,17.13
2019-01-12T07:29:17.789Z,26.77
2019-01-12T07:31:54.382Z,22.37
2019-01-12T07:34:37.617Z,18.30
2019-01-12T07:37:09.490Z,20.77
2019-01-12T07:39:35.617Z,20.43
2019-01-12T07:42:01.713Z,16.73
2019-01-12T07:44:57.768Z,16.13
2019-01-12T07:47:29.907Z,19.03
2019-01-12T07:49:56.001Z,14.60
2019-01-12T07:52:23.713Z,13.90
2019-01-12T07:55:05.244Z,13.90
2019-01-12T07:57:34.609Z,13.40
2019-01-12T08:00:02.307Z,12.60
2019-01-12T08:02:30.936Z,15.00
2019-01-12T08:05:22.782Z,11.70
2019-01-12T08:07:50.312Z,13.60
2019-01-12T08:10:19.283Z,13.57
2019-01-12T08:12:45.642Z,11.40
2019-01-12T08:15:12.292Z,12.60
2019-01-12T08:17:45.494Z,12.43
2019-01-12T08:20:35.483Z,11.63
2019-01-12T08:23:14.116Z,11.40
2019-01-12T08:25:40.314Z,12.47
2019-01-12T08:28:06.379Z,13.47
2019-01-12T08:30:32.481Z,13.67
2019-01-12T08:33:16.237Z,10.70
2019-01-12T08:35:50.483Z,11.93
2019-01-12T08:38:18.196Z,12.40
2019-01-12T08:40:44.331Z,15.63
2019-01-12T08:43:11.842Z,15.33
2019-01-12T08:45:53.184Z,14.63
2019-01-12T08:48:37.832Z,15.70
2019-01-12T08:51:36.904Z,14.77
2019-01-12T08:54:25.507Z,16.73
2019-01-12T08:56:51.614Z,16.27
2019-01-12T08:59:17.727Z,20.20
2019-01-12T09:01:46.436Z,15.87
2019-01-12T09:04:12.621Z,14.77
2019-01-12T09:06:40.917Z,13.80
2019-01-12T09:09:07.211Z,17.70
2019-01-12T09:11:35.653Z,14.67
2019-01-12T09:14:04.901Z,17.53
2019-01-12T09:17:08.773Z,17.90
2019-01-12T09:19:56.606Z,15.70
2019-01-12T09:23:01.792Z,15.20
2019-01-12T09:25:28.186Z,12.93
2019-01-12T09:27:54.245Z,15.40
2019-01-12T09:30:20.938Z,13.80
2019-01-12T09:32:47.763Z,14.73
2019-01-12T09:35:23.175Z,13.63
2019-01-12T09:38:46.172Z,16.50
2019-01-12T09:41:37.888Z,7.50
2019-01-12T09:44:05.970Z,9.33
2019-01-12T09:46:31.952Z,10.37
2019-01-12T09:48:57.977Z,9.13
2019-01-12T09:51:24.202Z,11.53
2019-01-12T09:53:52.071Z,14.30
2019-01-12T09:56:18.276Z,12.80
2019-01-12T09:58:47.587Z,8.80
2019-01-12T10:01:16.033Z,8.60
2019-01-12T10:04:27.771Z,9.77
2019-01-12T10:06:53.832Z,8.43
2019-01-12T10:09:19.956Z,9.83
2019-01-12T10:12:02.663Z,7.90
2019-01-12T10:14:34.751Z,9.00
2019-01-12T10:17:12.584Z,7.70
2019-01-12T10:19:49.125Z,7.50
2019-01-12T10:22:28.513Z,8.37
2019-01-12T10:25:55.962Z,8.27
2019-01-12T10:29:04.626Z,7.57
2019-01-12T10:31:58.713Z,9.63
2019-01-12T10:37:47.172Z,6.90
2019-01-12T10:40:16.327Z,8.97
2019-01-12T10:42:43.170Z,8.43
2019-01-12T10:45:20.941Z,8.17
2019-01-12T10:48:09.191Z,9.17
2019-01-12T10:50:46.361Z,15.70
2019-01-12T10:53:19.489Z,9.97
2019-01-12T10:56:19.515Z,10.70
2019-01-12T10:58:46.588Z,10.80
2019-01-12T11:01:18.640Z,8.87
2019-01-12T11:03:45.471Z,9.90
2019-01-12T11:06:11.558Z,9.07
2019-01-12T11:08:37.694Z,9.10
2019-01-12T11:11:31.609Z,10.90
2019-01-12T11:14:16.908Z,12.40
2019-01-12T11:17:14.167Z,10.77
2019-01-12T11:19:40.324Z,11.23
2019-01-12T11:22:06.452Z,20.50
2019-01-12T11:24:32.646Z,16.67
2019-01-12T11:26:58.681Z,13.80
2019-01-12T11:29:24.824Z,15.27
2019-01-12T11:31:50.968Z,16.13
2019-01-12T11:34:26.431Z,16.53
2019-01-12T11:37:33.933Z,16.03
2019-01-12T11:40:00.017Z,15.87
2019-01-12T11:42:32.177Z,18.20
2019-01-12T11:44:58.209Z,18.57
2019-01-12T11:47:24.416Z,16.90
2019-01-12T11:49:52.438Z,15.30
2019-01-12T11:52:51.744Z,13.57
2019-01-12T11:55:23.231Z,13.73
2019-01-12T11:58:18.272Z,16.77
2019-01-12T12:00:45.512Z,13.73
2019-01-12T12:03:12.634Z,13.00
2019-01-12T12:06:23.509Z,12.17
2019-01-12T12:09:12.832Z,14.40
2019-01-12T12:12:12.374Z,16.60
2019-01-12T12:14:38.716Z,18.70
2019-01-12T12:17:20.206Z,16.10
2019-01-12T12:19:52.031Z,18.50
2019-01-12T12:22:20.101Z,16.67
2019-01-12T12:24:46.363Z,15.30
2019-01-12T12:27:12.493Z,17.23
2019-01-12T12:29:38.549Z,18.83
2019-01-12T12:32:12.913Z,16.70
2019-01-12T12:34:44.836Z,23.50
2019-01-12T12:37:38.794Z,19.50
2019-01-12T12:40:14.476Z,20.60
2019-01-12T12:43:21.982Z,20.40
2019-01-12T12:45:59.025Z,20.87
2019-01-12T12:48:39.202Z,20.73
2019-01-12T12:51:09.428Z,19.27
2019-01-12T12:54:07.571Z,19.93
2019-01-12T12:56:33.690Z,20.00
2019-01-12T12:59:01.126Z,17.10
2019-01-12T13:02:27.057Z,18.90
2019-01-12T13:04:53.150Z,18.13
2019-01-12T13:07:20.937Z,18.60
2019-01-12T13:13:13.450Z,21.80
2019-01-12T13:15:39.615Z,23.57
2019-01-12T13:18:27.690Z,22.17
2019-01-12T13:21:08.155Z,24.20
2019-01-12T13:23:56.675Z,19.33
2019-01-12T13:26:36.483Z,32.80
2019-01-12T13:29:06.701Z,25.03
2019-01-12T13:31:41.780Z,23.87
2019-01-12T13:34:20.959Z,21.90
2019-01-12T13:40:21.879Z,19.20
2019-01-12T13:42:48.146Z,19.63
2019-01-12T13:45:27.568Z,19.63
2019-01-12T13:48:24.872Z,21.00
2019-01-12T13:50:51.091Z,29.27
2019-01-12T13:53:25.418Z,20.30
2019-01-12T13:56:08.096Z,21.23
2019-01-12T13:59:01.350Z,19.70
2019-01-12T14:01:50.197Z,21.93
2019-01-12T14:04:22.161Z,20.97
2019-01-12T14:07:01.461Z,21.10
2019-01-12T14:09:59.457Z,19.73
2019-01-12T14:12:25.603Z,18.43
2019-01-12T14:15:24.112Z,22.67
2019-01-12T14:18:30.240Z,19.20
2019-01-12T14:20:56.249Z,19.83
2019-01-12T14:24:01.299Z,20.80
2019-01-12T14:26:27.398Z,20.97
2019-01-12T14:28:53.439Z,22.57
2019-01-12T14:32:12.297Z,21.17
2019-01-12T14:34:40.376Z,21.83
2019-01-12T14:37:06.520Z,21.53
2019-01-12T14:39:32.605Z,20.90
2019-01-12T14:41:58.849Z,22.90
2019-01-12T14:45:24.387Z,18.83
2019-01-12T14:47:50.628Z,20.03
2019-01-12T14:50:16.761Z,21.40
2019-01-12T14:52:42.983Z,22.40
2019-01-12T14:55:12.374Z,22.60
2019-01-12T14:57:47.758Z,26.77
2019-01-12T15:01:10.545Z,21.07
2019-01-12T15:03:36.741Z,21.07
2019-01-12T15:06:30.048Z,21.07
2019-01-12T15:09:24.005Z,21.87
2019-01-12T15:11:50.233Z,21.40
2019-01-12T15:14:24.490Z,25.27
2019-01-12T15:17:08.050Z,20.27
2019-01-12T15:19:34.142Z,22.60
2019-01-12T15:22:00.461Z,26.40
2019-01-12T15:24:30.100Z,26.37
2019-01-12T15:26:59.508Z,24.43
2019-01-12T15:29:34.721Z,27.73
2019-01-12T15:32:13.160Z,26.60
2019-01-12T15:34:47.050Z,23.57
2019-01-12T15:37:13.300Z,25.20
2019-01-12T15:39:39.666Z,22.47
2019-01-12T15:42:05.794Z,26.20
2019-01-12T15:44:31.928Z,32.07
2019-01-12T15:46:58.001Z,26.20
2019-01-12T15:49:24.388Z,24.03
2019-01-12T15:51:50.452Z,25.43
2019-01-12T15:54:16.695Z,25.53
2019-01-12T15:56:42.927Z,25.67
2019-01-12T15:59:09.049Z,25.70
2019-01-12T16:01:35.121Z,23.70
2019-01-12T16:04:01.248Z,26.83
2019-01-12T16:06:59.384Z,28.97
2019-01-12T16:09:25.592Z,22.47
2019-01-12T16:12:03.971Z,23.30
2019-01-12T16:15:01.104Z,22.27
2019-01-12T16:18:03.394Z,21.13
2019-01-12T16:20:33.138Z,22.03
2019-01-12T16:22:59.366Z,26.73
2019-01-12T16:25:26.747Z,23.60
2019-01-12T16:27:53.329Z,24.70
2019-01-12T16:30:19.587Z,25.57
2019-01-12T16:32:45.898Z,27.17
2019-01-12T16:35:12.663Z,25.40
2019-01-12T16:38:19.717Z,22.50
2019-01-12T16:40:45.950Z,24.63
2019-01-12T16:43:12.446Z,31.40
2019-01-12T16:45:38.575Z,26.23
2019-01-12T16:48:04.816Z,28.93
2019-01-12T16:50:30.842Z,23.30
2019-01-12T16:52:57.977Z,23.07
2019-01-12T16:55:24.133Z,22.10
2019-01-12T16:57:50.289Z,22.00
2019-01-12T17:00:19.496Z,24.33
2019-01-12T17:02:45.516Z,24.80
2019-01-12T17:05:11.822Z,24.23
2019-01-12T17:07:38.052Z,23.37
2019-01-12T17:10:07.994Z,21.63
2019-01-12T17:12:34.176Z,21.83
2019-01-12T17:15:00.415Z,22.13
2019-01-12T17:17:34.353Z,22.87
2019-01-12T17:20:00.847Z,24.77
2019-01-12T17:22:28.088Z,27.40
2019-01-12T17:25:06.946Z,18.33
2019-01-12T17:27:57.963Z,21.83
2019-01-12T17:30:26.112Z,23.57
2019-01-12T17:36:24.212Z,18.77
2019-01-12T17:38:50.414Z,20.50
2019-01-12T17:41:16.474Z,24.00
2019-01-12T17:43:42.675Z,22.40
2019-01-12T17:46:08.675Z,17.43
2019-01-12T17:48:34.813Z,18.10
2019-01-12T17:51:00.825Z,20.20
2019-01-12T17:53:26.986Z,20.50
2019-01-12T17:55:53.020Z,17.20
2019-01-12T17:58:29.153Z,16.70
2019-01-12T18:01:29.482Z,19.10
2019-01-12T18:03:55.675Z,24.53
2019-01-12T18:06:21.786Z,19.50
2019-01-12T18:08:47.935Z,16.80
2019-01-12T18:11:17.176Z,13.73
2019-01-12T18:13:43.407Z,13.73
2019-01-12T18:16:16.207Z,16.13
2019-01-12T18:18:52.640Z,12.97
2019-01-12T18:21:21.709Z,13.90
2019-01-12T18:24:00.799Z,13.00
2019-01-12T18:26:37.055Z,16.57
2019-01-12T18:29:25.089Z,15.20
2019-01-12T18:32:02.672Z,12.23
2019-01-12T18:34:39.776Z,14.20
2019-01-12T18:37:47.689Z,14.03
2019-01-12T18:40:19.620Z,18.40
2019-01-12T18:42:52.147Z,14.67
2019-01-12T18:45:20.734Z,12.93
2019-01-12T18:47:46.934Z,14.73
2019-01-12T18:50:15.828Z,12.60
2019-01-12T18:52:41.957Z,15.23
2019-01-12T18:55:10.240Z,11.50
2019-01-12T18:57:37.275Z,10.73
2019-01-12T19:03:35.348Z,13.30
2019-01-12T19:06:28.980Z,11.80
2019-01-12T19:12:26.859Z,9.50
2019-01-12T19:14:53.164Z,12.13
2019-01-12T19:17:21.256Z,8.33
2019-01-12T19:19:51.574Z,9.60
2019-01-12T19:22:52.943Z,7.83
2019-01-12T19:25:26.351Z,12.43
2019-01-12T19:27:55.566Z,8.97
2019-01-12T19:30:40.023Z,9.47
2019-01-12T19:33:19.536Z,10.70
2019-01-12T19:35:45.642Z,11.17
2019-01-12T19:38:11.788Z,9.37
2019-01-12T19:40:38.095Z,11.00
2019-01-12T19:43:04.214Z,9.67
2019-01-12T19:45:49.817Z,9.57
2019-01-12T19:48:56.410Z,10.17
2019-01-12T19:52:26.951Z,10.80
2019-01-12T19:54:54.726Z,13.23
2019-01-12T19:57:40.685Z,13.80
2019-01-12T20:00:41.273Z,13.50
2019-01-12T20:03:29.494Z,12.63
2019-01-12T20:06:31.497Z,13.37
2019-01-12T20:09:00.154Z,13.93
2019-01-12T20:11:26.932Z,13.50
2019-01-12T20:13:53.182Z,14.83
2019-01-12T20:16:40.399Z,15.00
2019-01-12T20:19:07.944Z,13.40
2019-01-12T20:21:44.524Z,13.50
2019-01-12T20:24:23.945Z,14.47
2019-01-12T20:26:50.188Z,13.80
2019-01-12T20:29:21.050Z,12.07
2019-01-12T20:32:02.934Z,11.37
2019-01-12T20:34:44.513Z,10.00
2019-01-12T20:41:01.587Z,13.30
2019-01-12T20:44:07.010Z,11.20
2019-01-12T20:47:07.511Z,9.57
2019-01-12T20:50:44.605Z,11.27
2019-01-12T20:53:36.043Z,10.83
2019-01-12T20:56:58.350Z,9.90
2019-01-12T21:00:10.971Z,10.33
2019-01-12T21:02:49.694Z,7.57
2019-01-12T21:05:20.166Z,17.50
2019-01-12T21:08:02.216Z,9.27
2019-01-12T21:11:22.115Z,9.23
2019-01-12T21:14:08.051Z,7.63
2019-01-12T21:17:00.443Z,6.40
2019-01-12T21:19:27.146Z,7.93
2019-01-12T21:21:55.367Z,7.23
2019-01-12T21:24:22.943Z,6.53
2019-01-12T21:26:49.088Z,6.50
2019-01-12T21:29:17.226Z,6.17
2019-01-12T21:31:51.501Z,7.80
2019-01-12T21:34:50.855Z,7.20
2019-01-12T21:37:17.625Z,11.80
2019-01-12T21:39:44.934Z,7.50
2019-01-12T21:45:43.360Z,7.07
2019-01-12T21:48:22.306Z,8.40
2019-01-12T21:50:48.635Z,7.57
2019-01-12T21:53:14.887Z,6.13
2019-01-12T21:56:07.470Z,8.50
2019-01-12T21:58:33.669Z,8.20
2019-01-12T22:01:00.090Z,6.80
2019-01-12T22:03:26.164Z,6.90
2019-01-12T22:06:17.076Z,8.03
2019-01-12T22:08:43.565Z,7.70
2019-01-12T22:11:10.788Z,9.90
2019-01-12T22:13:41.414Z,8.23
2019-01-12T22:16:07.823Z,6.73
2019-01-12T22:18:35.931Z,7.00
2019-01-12T22:21:27.981Z,6.47
2019-01-12T22:24:10.874Z,5.53
2019-01-12T22:26:37.564Z,5.30
2019-01-12T22:29:06.631Z,5.17
2019-01-12T22:31:33.048Z,5.27
2019-01-12T22:34:04.068Z,5.37
2019-01-12T22:36:34.156Z,5.03
2019-01-12T22:39:00.177Z,5.53
2019-01-12T22:41:26.212Z,5.67
2019-01-12T22:43:52.791Z,5.90
2019-01-12T22:46:18.808Z,4.80
2019-01-12T22:48:44.988Z,5.33
2019-01-12T22:51:11.268Z,5.10
2019-01-12T22:53:39.513Z,4.83
2019-01-12T22:56:11.701Z,4.60
2019-01-12T22:59:25.728Z,4.17
2019-01-12T23:01:53.697Z,7.40
2019-01-12T23:04:19.777Z,4.03
2019-01-12T23:06:46.146Z,4.20
2019-01-12T23:09:22.762Z,3.60
2019-01-12T23:11:46.736Z,3.83
2019-01-12T23:14:13.217Z,4.43
2019-01-12T23:16:45.603Z,4.27
2019-01-12T23:19:11.788Z,3.70
2019-01-12T23:21:37.860Z,3.30
2019-01-12T23:24:34.639Z,5.60
2019-01-12T23:27:01.732Z,4.50
2019-01-12T23:29:27.899Z,5.87
2019-01-12T23:31:53.933Z,7.80
2019-01-12T23:34:20.013Z,4.93
2019-01-12T23:36:46.030Z,4.83
2019-01-12T23:39:12.189Z,4.73
2019-01-12T23:41:44.242Z,4.97
2019-01-12T23:44:14.817Z,4.90
2019-01-12T23:46:39.372Z,5.40
2019-01-12T23:49:16.427Z,7.83
2019-01-12T23:51:42.564Z,4.50
2019-01-12T23:54:08.984Z,6.27
2019-01-12T23:57:22.035Z,5.03
